sensor_id;sensor_type;location;lat;lon;timestamp;temperature;humidity
10873;DHT22;34586;53.616;10.032;2023-03-14T00:01:23;11.10;99.90
10873;DHT22;34586;53.616;10.032;2023-03-14T00:03:49;11.10;99.90
10873;DHT22;34586;53.616;10.032;2023-03-14T00:06:15;11.10;99.90
10873;DHT22;34586;53.616;10.032;2023-03-14T00:08:42;11.00;99.90
10873;DHT22;34586;53.616;10.032;2023-03-14T00:11:10;11.00;99.90
10873;DHT22;34586;53.616;10.032;2023-03-14T00:13:36;11.00;99.90
10873;DHT22;34586;53.616;10.032;2023-03-14T00:16:04;11.00;99.90
10873;DHT22;34586;53.616;10.032;2023-03-14T00:18:30;10.90;99.90
10873;DHT22;34586;53.616;10.032;2023-03-14T00:21:00;10.80;99.90
10873;DHT22;34586;53.616;10.032;2023-03-14T00:23:27;10.80;99.90
10873;DHT22;34586;53.616;10.032;2023-03-14T00:25:53;10.80;99.90
10873;DHT22;34586;53.616;10.032;2023-03-14T00:28:23;10.90;99.90
10873;DHT22;34586;53.616;10.032;2023-03-14T00:30:48;10.90;99.90
10873;DHT22;34586;53.616;10.032;2023-03-14T00:33:14;11.00;99.90
10873;DHT22;34586;53.616;10.032;2023-03-14T00:35:39;11.00;99.90
10873;DHT22;34586;53.616;10.032;2023-03-14T00:38:05;11.10;99.90
10873;DHT22;34586;53.616;10.032;2023-03-14T00:40:31;11.20;99.90
10873;DHT22;34586;53.616;10.032;2023-03-14T00:42:56;11.20;99.90
10873;DHT22;34586;53.616;10.032;2023-03-14T00:45:22;11.30;99.90
10873;DHT22;34586;53.616;10.032;2023-03-14T00:47:47;11.20;99.90
10873;DHT22;34586;53.616;10.032;2023-03-14T00:50:13;11.20;99.90
10873;DHT22;34586;53.616;10.032;2023-03-14T00:52:39;11.20;99.90
10873;DHT22;34586;53.616;10.032;2023-03-14T00:55:05;11.20;99.90
10873;DHT22;34586;53.616;10.032;2023-03-14T00:57:31;11.20;99.90
10873;DHT22;34586;53.616;10.032;2023-03-14T00:59:57;11.20;99.90
10873;DHT22;34586;53.616;10.032;2023-03-14T01:02:23;11.20;99.90
10873;DHT22;34586;53.616;10.032;2023-03-14T01:04:50;11.20;99.90
10873;DHT22;34586;53.616;10.032;2023-03-14T01:07:16;11.30;99.90
10873;DHT22;34586;53.616;10.032;2023-03-14T01:09:41;11.30;99.90
10873;DHT22;34586;53.616;10.032;2023-03-14T01:12:07;11.30;99.90
10873;DHT22;34586;53.616;10.032;2023-03-14T01:14:32;11.30;99.90
10873;DHT22;34586;53.616;10.032;2023-03-14T01:16:58;11.40;96.40
10873;DHT22;34586;53.616;10.032;2023-03-14T01:19:27;11.40;91.10
10873;DHT22;34586;53.616;10.032;2023-03-14T01:21:53;11.50;70.30
10873;DHT22;34586;53.616;10.032;2023-03-14T01:24:19;11.60;64.70
10873;DHT22;34586;53.616;10.032;2023-03-14T01:26:46;11.70;35.40
10873;DHT22;34586;53.616;10.032;2023-03-14T01:29:12;11.60;40.60
10873;DHT22;34586;53.616;10.032;2023-03-14T01:31:46;11.70;51.00
10873;DHT22;34586;53.616;10.032;2023-03-14T01:34:12;11.60;62.90
10873;DHT22;34586;53.616;10.032;2023-03-14T01:36:38;11.60;50.80
10873;DHT22;34586;53.616;10.032;2023-03-14T01:39:04;11.60;51.60
10873;DHT22;34586;53.616;10.032;2023-03-14T01:41:31;11.50;69.00
10873;DHT22;34586;53.616;10.032;2023-03-14T01:43:57;11.50;70.50
10873;DHT22;34586;53.616;10.032;2023-03-14T01:46:34;11.40;80.60
10873;DHT22;34586;53.616;10.032;2023-03-14T01:49:29;11.40;73.80
10873;DHT22;34586;53.616;10.032;2023-03-14T01:54:41;11.30;85.20
10873;DHT22;34586;53.616;10.032;2023-03-14T01:57:15;11.20;95.10
10873;DHT22;34586;53.616;10.032;2023-03-14T01:59:45;11.10;99.90
10873;DHT22;34586;53.616;10.032;2023-03-14T02:02:13;11.10;99.90
10873;DHT22;34586;53.616;10.032;2023-03-14T02:04:41;11.10;99.90
10873;DHT22;34586;53.616;10.032;2023-03-14T02:07:19;11.10;99.90
10873;DHT22;34586;53.616;10.032;2023-03-14T02:09:48;11.00;99.90
10873;DHT22;34586;53.616;10.032;2023-03-14T02:12:16;11.00;99.90
10873;DHT22;34586;53.616;10.032;2023-03-14T02:14:43;11.00;99.90
10873;DHT22;34586;53.616;10.032;2023-03-14T02:17:16;11.00;99.90
10873;DHT22;34586;53.616;10.032;2023-03-14T02:22:35;10.90;99.90
10873;DHT22;34586;53.616;10.032;2023-03-14T02:27:31;10.80;99.90
10873;DHT22;34586;53.616;10.032;2023-03-14T02:30:18;10.70;99.90
10873;DHT22;34586;53.616;10.032;2023-03-14T02:32:47;10.60;99.90
10873;DHT22;34586;53.616;10.032;2023-03-14T02:35:21;10.50;99.90
10873;DHT22;34586;53.616;10.032;2023-03-14T02:38:36;10.50;99.90
10873;DHT22;34586;53.616;10.032;2023-03-14T02:40:42;10.40;99.90
10873;DHT22;34586;53.616;10.032;2023-03-14T02:43:08;10.40;99.90
10873;DHT22;34586;53.616;10.032;2023-03-14T02:45:38;10.40;99.90
10873;DHT22;34586;53.616;10.032;2023-03-14T02:48:16;10.50;99.90
10873;DHT22;34586;53.616;10.032;2023-03-14T02:50:44;10.50;99.90
10873;DHT22;34586;53.616;10.032;2023-03-14T02:53:13;10.50;99.90
10873;DHT22;34586;53.616;10.032;2023-03-14T02:55:44;10.50;99.90
10873;DHT22;34586;53.616;10.032;2023-03-14T02:58:10;10.60;99.90
10873;DHT22;34586;53.616;10.032;2023-03-14T03:00:36;10.70;99.90
10873;DHT22;34586;53.616;10.032;2023-03-14T03:03:01;10.70;99.90
10873;DHT22;34586;53.616;10.032;2023-03-14T03:05:27;10.70;99.90
10873;DHT22;34586;53.616;10.032;2023-03-14T03:07:52;10.80;99.90
10873;DHT22;34586;53.616;10.032;2023-03-14T03:10:18;10.80;99.90
10873;DHT22;34586;53.616;10.032;2023-03-14T03:12:44;10.80;99.90
10873;DHT22;34586;53.616;10.032;2023-03-14T03:15:10;10.90;99.90
10873;DHT22;34586;53.616;10.032;2023-03-14T03:17:35;10.90;99.90
10873;DHT22;34586;53.616;10.032;2023-03-14T03:20:01;11.00;99.90
10873;DHT22;34586;53.616;10.032;2023-03-14T03:22:28;11.10;99.90
10873;DHT22;34586;53.616;10.032;2023-03-14T03:24:54;11.20;99.90
10873;DHT22;34586;53.616;10.032;2023-03-14T03:27:20;11.30;99.90
10873;DHT22;34586;53.616;10.032;2023-03-14T03:29:45;11.20;99.90
10873;DHT22;34586;53.616;10.032;2023-03-14T03:32:11;11.30;99.90
10873;DHT22;34586;53.616;10.032;2023-03-14T03:34:37;11.40;99.90
10873;DHT22;34586;53.616;10.032;2023-03-14T03:37:02;11.30;99.90
10873;DHT22;34586;53.616;10.032;2023-03-14T03:39:28;11.40;99.90
10873;DHT22;34586;53.616;10.032;2023-03-14T03:41:54;11.40;99.90
10873;DHT22;34586;53.616;10.032;2023-03-14T03:44:19;11.50;99.90
10873;DHT22;34586;53.616;10.032;2023-03-14T03:46:45;11.50;99.90
10873;DHT22;34586;53.616;10.032;2023-03-14T03:49:11;11.50;99.90
10873;DHT22;34586;53.616;10.032;2023-03-14T03:51:36;11.50;96.30
10873;DHT22;34586;53.616;10.032;2023-03-14T03:54:02;11.60;95.10
10873;DHT22;34586;53.616;10.032;2023-03-14T03:56:27;11.50;93.20
10873;DHT22;34586;53.616;10.032;2023-03-14T03:58:53;11.40;99.90
10873;DHT22;34586;53.616;10.032;2023-03-14T04:01:19;11.40;99.90
10873;DHT22;34586;53.616;10.032;2023-03-14T04:03:44;11.40;99.90
10873;DHT22;34586;53.616;10.032;2023-03-14T04:06:11;11.50;99.80
10873;DHT22;34586;53.616;10.032;2023-03-14T04:08:38;11.40;97.40
10873;DHT22;34586;53.616;10.032;2023-03-14T04:11:06;11.50;96.40
10873;DHT22;34586;53.616;10.032;2023-03-14T04:13:31;11.40;98.00
10873;DHT22;34586;53.616;10.032;2023-03-14T04:15:57;11.40;99.60
10873;DHT22;34586;53.616;10.032;2023-03-14T04:18:23;11.40;99.30
10873;DHT22;34586;53.616;10.032;2023-03-14T04:20:53;11.50;99.70
10873;DHT22;34586;53.616;10.032;2023-03-14T04:23:19;11.40;96.00
10873;DHT22;34586;53.616;10.032;2023-03-14T04:25:45;11.30;99.90
10873;DHT22;34586;53.616;10.032;2023-03-14T04:28:11;11.20;99.90
10873;DHT22;34586;53.616;10.032;2023-03-14T04:30:36;11.20;99.90
10873;DHT22;34586;53.616;10.032;2023-03-14T04:33:02;11.30;99.90
10873;DHT22;34586;53.616;10.032;2023-03-14T04:35:30;11.20;99.90
10873;DHT22;34586;53.616;10.032;2023-03-14T04:37:56;11.20;99.90
10873;DHT22;34586;53.616;10.032;2023-03-14T04:40:22;11.20;98.70
10873;DHT22;34586;53.616;10.032;2023-03-14T04:42:48;11.20;97.50
10873;DHT22;34586;53.616;10.032;2023-03-14T04:45:13;11.30;99.00
10873;DHT22;34586;53.616;10.032;2023-03-14T04:47:39;11.20;98.60
10873;DHT22;34586;53.616;10.032;2023-03-14T04:50:05;11.20;99.40
10873;DHT22;34586;53.616;10.032;2023-03-14T04:52:30;11.30;91.80
10873;DHT22;34586;53.616;10.032;2023-03-14T04:54:56;11.30;93.30
10873;DHT22;34586;53.616;10.032;2023-03-14T04:57:22;11.40;86.60
10873;DHT22;34586;53.616;10.032;2023-03-14T04:59:47;11.40;82.60
10873;DHT22;34586;53.616;10.032;2023-03-14T05:02:13;11.40;72.70
10873;DHT22;34586;53.616;10.032;2023-03-14T05:04:39;11.40;80.20
10873;DHT22;34586;53.616;10.032;2023-03-14T05:07:04;11.40;60.70
10873;DHT22;34586;53.616;10.032;2023-03-14T05:09:30;11.40;1.00
10873;DHT22;34586;53.616;10.032;2023-03-14T05:11:56;11.30;1.00
10873;DHT22;34586;53.616;10.032;2023-03-14T05:14:21;11.10;1.00
10873;DHT22;34586;53.616;10.032;2023-03-14T05:16:47;11.10;1.00
10873;DHT22;34586;53.616;10.032;2023-03-14T05:19:13;11.00;6.60
10873;DHT22;34586;53.616;10.032;2023-03-14T05:21:39;10.90;99.90
10873;DHT22;34586;53.616;10.032;2023-03-14T05:24:04;10.60;99.90
10873;DHT22;34586;53.616;10.032;2023-03-14T05:26:30;10.30;99.90
10873;DHT22;34586;53.616;10.032;2023-03-14T05:28:56;10.10;99.90
10873;DHT22;34586;53.616;10.032;2023-03-14T05:31:21;10.00;99.90
10873;DHT22;34586;53.616;10.032;2023-03-14T05:33:47;9.90;99.90
10873;DHT22;34586;53.616;10.032;2023-03-14T05:36:13;9.80;99.90
10873;DHT22;34586;53.616;10.032;2023-03-14T05:38:38;9.80;99.90
10873;DHT22;34586;53.616;10.032;2023-03-14T05:41:04;9.70;99.90
10873;DHT22;34586;53.616;10.032;2023-03-14T05:43:30;9.70;99.90
10873;DHT22;34586;53.616;10.032;2023-03-14T05:45:55;9.80;99.90
10873;DHT22;34586;53.616;10.032;2023-03-14T05:48:21;9.70;99.90
10873;DHT22;34586;53.616;10.032;2023-03-14T05:50:47;9.70;99.90
10873;DHT22;34586;53.616;10.032;2023-03-14T05:53:13;9.70;99.90
10873;DHT22;34586;53.616;10.032;2023-03-14T05:55:39;9.70;99.90
10873;DHT22;34586;53.616;10.032;2023-03-14T05:58:05;9.80;99.90
10873;DHT22;34586;53.616;10.032;2023-03-14T06:00:31;9.70;99.90
10873;DHT22;34586;53.616;10.032;2023-03-14T06:02:57;9.70;99.90
10873;DHT22;34586;53.616;10.032;2023-03-14T06:05:22;9.70;99.90
10873;DHT22;34586;53.616;10.032;2023-03-14T06:07:48;9.70;99.90
10873;DHT22;34586;53.616;10.032;2023-03-14T06:10:14;9.80;99.90
10873;DHT22;34586;53.616;10.032;2023-03-14T06:12:39;9.80;99.90
10873;DHT22;34586;53.616;10.032;2023-03-14T06:15:05;9.80;99.90
10873;DHT22;34586;53.616;10.032;2023-03-14T06:17:31;9.90;99.90
10873;DHT22;34586;53.616;10.032;2023-03-14T06:19:56;9.90;99.90
10873;DHT22;34586;53.616;10.032;2023-03-14T06:22:22;9.90;99.90
10873;DHT22;34586;53.616;10.032;2023-03-14T06:24:48;9.90;99.90
10873;DHT22;34586;53.616;10.032;2023-03-14T06:27:13;9.90;99.90
10873;DHT22;34586;53.616;10.032;2023-03-14T06:29:39;9.90;99.90
10873;DHT22;34586;53.616;10.032;2023-03-14T06:32:04;9.90;99.90
10873;DHT22;34586;53.616;10.032;2023-03-14T06:34:30;9.90;99.90
10873;DHT22;34586;53.616;10.032;2023-03-14T06:36:56;9.90;99.90
10873;DHT22;34586;53.616;10.032;2023-03-14T06:39:22;10.00;99.90
10873;DHT22;34586;53.616;10.032;2023-03-14T06:41:47;10.00;99.90
10873;DHT22;34586;53.616;10.032;2023-03-14T06:44:13;10.00;99.90
10873;DHT22;34586;53.616;10.032;2023-03-14T06:46:39;10.00;99.90
10873;DHT22;34586;53.616;10.032;2023-03-14T06:49:04;10.00;99.90
10873;DHT22;34586;53.616;10.032;2023-03-14T06:51:30;10.10;99.90
10873;DHT22;34586;53.616;10.032;2023-03-14T06:53:55;10.10;99.90
10873;DHT22;34586;53.616;10.032;2023-03-14T06:56:21;10.10;99.90
10873;DHT22;34586;53.616;10.032;2023-03-14T06:58:47;10.10;99.90
10873;DHT22;34586;53.616;10.032;2023-03-14T07:01:32;10.10;99.90
10873;DHT22;34586;53.616;10.032;2023-03-14T07:04:00;10.10;99.90
10873;DHT22;34586;53.616;10.032;2023-03-14T07:06:26;10.20;99.90
10873;DHT22;34586;53.616;10.032;2023-03-14T07:08:55;10.20;99.90
10873;DHT22;34586;53.616;10.032;2023-03-14T07:11:21;10.20;99.90
10873;DHT22;34586;53.616;10.032;2023-03-14T07:13:46;10.30;99.90
10873;DHT22;34586;53.616;10.032;2023-03-14T07:16:12;10.40;99.90
10873;DHT22;34586;53.616;10.032;2023-03-14T07:18:38;10.30;99.90
10873;DHT22;34586;53.616;10.032;2023-03-14T07:21:05;10.30;99.90
10873;DHT22;34586;53.616;10.032;2023-03-14T07:23:30;10.40;99.90
10873;DHT22;34586;53.616;10.032;2023-03-14T07:25:56;10.40;99.90
10873;DHT22;34586;53.616;10.032;2023-03-14T07:28:22;10.50;99.90
10873;DHT22;34586;53.616;10.032;2023-03-14T07:30:48;10.50;99.90
10873;DHT22;34586;53.616;10.032;2023-03-14T07:33:15;10.50;99.90
10873;DHT22;34586;53.616;10.032;2023-03-14T07:35:40;10.40;99.90
10873;DHT22;34586;53.616;10.032;2023-03-14T07:38:06;10.50;99.90
10873;DHT22;34586;53.616;10.032;2023-03-14T07:40:31;10.50;99.90
10873;DHT22;34586;53.616;10.032;2023-03-14T07:42:57;10.50;99.90
10873;DHT22;34586;53.616;10.032;2023-03-14T07:45:23;10.60;99.90
10873;DHT22;34586;53.616;10.032;2023-03-14T07:47:48;10.70;99.90
10873;DHT22;34586;53.616;10.032;2023-03-14T07:50:14;10.60;99.90
10873;DHT22;34586;53.616;10.032;2023-03-14T07:52:40;10.60;99.90
10873;DHT22;34586;53.616;10.032;2023-03-14T07:55:06;10.60;99.90
10873;DHT22;34586;53.616;10.032;2023-03-14T07:57:31;10.40;99.90
10873;DHT22;34586;53.616;10.032;2023-03-14T07:59:57;10.40;99.90
10873;DHT22;34586;53.616;10.032;2023-03-14T08:02:23;10.30;99.90
10873;DHT22;34586;53.616;10.032;2023-03-14T08:04:49;10.30;99.90
10873;DHT22;34586;53.616;10.032;2023-03-14T08:07:15;10.30;99.90
10873;DHT22;34586;53.616;10.032;2023-03-14T08:09:41;10.40;99.90
10873;DHT22;34586;53.616;10.032;2023-03-14T08:12:07;10.40;99.90
10873;DHT22;34586;53.616;10.032;2023-03-14T08:14:33;10.50;99.90
10873;DHT22;34586;53.616;10.032;2023-03-14T08:16:59;10.60;99.90
10873;DHT22;34586;53.616;10.032;2023-03-14T08:19:24;10.60;99.90
10873;DHT22;34586;53.616;10.032;2023-03-14T08:21:50;10.70;99.90
10873;DHT22;34586;53.616;10.032;2023-03-14T08:24:16;10.70;99.90
10873;DHT22;34586;53.616;10.032;2023-03-14T08:26:42;10.90;99.90
10873;DHT22;34586;53.616;10.032;2023-03-14T08:29:07;11.00;99.90
10873;DHT22;34586;53.616;10.032;2023-03-14T08:31:34;10.90;99.90
10873;DHT22;34586;53.616;10.032;2023-03-14T08:34:00;10.90;99.90
10873;DHT22;34586;53.616;10.032;2023-03-14T08:36:27;10.80;99.90
10873;DHT22;34586;53.616;10.032;2023-03-14T08:38:53;11.10;99.90
10873;DHT22;34586;53.616;10.032;2023-03-14T08:41:18;11.10;99.90
10873;DHT22;34586;53.616;10.032;2023-03-14T08:43:44;11.10;99.90
10873;DHT22;34586;53.616;10.032;2023-03-14T08:46:10;11.20;99.90
10873;DHT22;34586;53.616;10.032;2023-03-14T08:48:35;11.00;99.90
10873;DHT22;34586;53.616;10.032;2023-03-14T08:51:09;11.10;99.90
10873;DHT22;34586;53.616;10.032;2023-03-14T08:53:36;11.20;99.90
10873;DHT22;34586;53.616;10.032;2023-03-14T08:56:02;11.20;99.90
10873;DHT22;34586;53.616;10.032;2023-03-14T08:58:29;11.20;99.90
10873;DHT22;34586;53.616;10.032;2023-03-14T09:00:55;11.10;99.90
10873;DHT22;34586;53.616;10.032;2023-03-14T09:03:20;11.00;99.90
10873;DHT22;34586;53.616;10.032;2023-03-14T09:05:49;10.90;99.90
10873;DHT22;34586;53.616;10.032;2023-03-14T09:08:14;10.90;99.90
10873;DHT22;34586;53.616;10.032;2023-03-14T09:10:40;10.90;99.90
10873;DHT22;34586;53.616;10.032;2023-03-14T09:13:06;11.00;99.90
10873;DHT22;34586;53.616;10.032;2023-03-14T09:15:32;11.00;99.90
10873;DHT22;34586;53.616;10.032;2023-03-14T09:17:58;11.00;99.90
10873;DHT22;34586;53.616;10.032;2023-03-14T09:20:24;11.10;99.90
10873;DHT22;34586;53.616;10.032;2023-03-14T09:22:49;11.00;99.90
10873;DHT22;34586;53.616;10.032;2023-03-14T09:25:15;11.10;99.90
10873;DHT22;34586;53.616;10.032;2023-03-14T09:27:41;11.10;99.90
10873;DHT22;34586;53.616;10.032;2023-03-14T09:30:07;11.10;99.90
10873;DHT22;34586;53.616;10.032;2023-03-14T09:32:33;11.00;99.90
10873;DHT22;34586;53.616;10.032;2023-03-14T09:34:59;11.10;99.90
10873;DHT22;34586;53.616;10.032;2023-03-14T09:37:24;10.90;99.90
10873;DHT22;34586;53.616;10.032;2023-03-14T09:39:50;10.80;99.90
10873;DHT22;34586;53.616;10.032;2023-03-14T09:42:22;10.80;99.90
10873;DHT22;34586;53.616;10.032;2023-03-14T09:44:59;10.90;99.90
10873;DHT22;34586;53.616;10.032;2023-03-14T09:47:26;11.00;99.90
10873;DHT22;34586;53.616;10.032;2023-03-14T09:49:53;11.00;99.90
10873;DHT22;34586;53.616;10.032;2023-03-14T09:52:28;11.00;99.90
10873;DHT22;34586;53.616;10.032;2023-03-14T09:55:06;11.00;99.90
10873;DHT22;34586;53.616;10.032;2023-03-14T09:57:36;10.90;99.90
10873;DHT22;34586;53.616;10.032;2023-03-14T10:00:14;10.30;99.90
10873;DHT22;34586;53.616;10.032;2023-03-14T10:02:42;9.80;99.90
10873;DHT22;34586;53.616;10.032;2023-03-14T10:05:19;9.40;99.90
10873;DHT22;34586;53.616;10.032;2023-03-14T10:07:45;9.10;99.90
10873;DHT22;34586;53.616;10.032;2023-03-14T10:10:21;8.90;99.90
10873;DHT22;34586;53.616;10.032;2023-03-14T10:15:33;8.60;99.90
10873;DHT22;34586;53.616;10.032;2023-03-14T10:18:03;8.50;99.90
10873;DHT22;34586;53.616;10.032;2023-03-14T10:20:38;8.40;99.90
10873;DHT22;34586;53.616;10.032;2023-03-14T10:25:44;7.90;99.90
10873;DHT22;34586;53.616;10.032;2023-03-14T10:30:51;7.30;99.90
10873;DHT22;34586;53.616;10.032;2023-03-14T10:33:25;7.30;99.90
10873;DHT22;34586;53.616;10.032;2023-03-14T10:36:02;7.20;99.90
10873;DHT22;34586;53.616;10.032;2023-03-14T10:38:34;6.90;99.90
10873;DHT22;34586;53.616;10.032;2023-03-14T10:41:00;6.80;99.90
10873;DHT22;34586;53.616;10.032;2023-03-14T10:43:32;6.60;99.90
10873;DHT22;34586;53.616;10.032;2023-03-14T10:46:02;6.50;99.90
10873;DHT22;34586;53.616;10.032;2023-03-14T10:51:06;6.30;99.90
10873;DHT22;34586;53.616;10.032;2023-03-14T10:53:56;6.30;99.90
10873;DHT22;34586;53.616;10.032;2023-03-14T10:56:25;6.30;99.90
10873;DHT22;34586;53.616;10.032;2023-03-14T10:58:54;6.20;99.90
10873;DHT22;34586;53.616;10.032;2023-03-14T11:10:10;6.10;99.90
10873;DHT22;34586;53.616;10.032;2023-03-14T11:12:51;6.00;99.90
10873;DHT22;34586;53.616;10.032;2023-03-14T11:16:22;6.00;99.90
10873;DHT22;34586;53.616;10.032;2023-03-14T11:24:27;5.70;99.90
10873;DHT22;34586;53.616;10.032;2023-03-14T11:27:11;5.80;99.90
10873;DHT22;34586;53.616;10.032;2023-03-14T11:33:16;5.70;99.90
10873;DHT22;34586;53.616;10.032;2023-03-14T11:35:39;5.70;99.90
10873;DHT22;34586;53.616;10.032;2023-03-14T11:40:49;5.80;99.90
10873;DHT22;34586;53.616;10.032;2023-03-14T11:43:33;5.80;99.90
10873;DHT22;34586;53.616;10.032;2023-03-14T11:46:17;6.00;99.90
10873;DHT22;34586;53.616;10.032;2023-03-14T11:51:46;6.10;99.90
10873;DHT22;34586;53.616;10.032;2023-03-14T11:54:47;6.30;87.20
10873;DHT22;34586;53.616;10.032;2023-03-14T11:57:19;6.30;18.40
10873;DHT22;34586;53.616;10.032;2023-03-14T12:10:59;6.20;99.90
10873;DHT22;34586;53.616;10.032;2023-03-14T12:13:36;6.20;99.90
10873;DHT22;34586;53.616;10.032;2023-03-14T12:16:18;6.30;99.90
10873;DHT22;34586;53.616;10.032;2023-03-14T12:18:45;6.30;1.00
10873;DHT22;34586;53.616;10.032;2023-03-14T12:21:12;6.40;99.90
10873;DHT22;34586;53.616;10.032;2023-03-14T12:23:42;6.40;1.00
10873;DHT22;34586;53.616;10.032;2023-03-14T12:28:38;6.40;1.00
10873;DHT22;34586;53.616;10.032;2023-03-14T12:39:47;6.40;1.00
10873;DHT22;34586;53.616;10.032;2023-03-14T12:42:24;6.50;1.00
10873;DHT22;34586;53.616;10.032;2023-03-14T12:45:36;6.50;1.00
10873;DHT22;34586;53.616;10.032;2023-03-14T12:48:23;6.50;1.00
10873;DHT22;34586;53.616;10.032;2023-03-14T12:51:02;6.50;1.00
10873;DHT22;34586;53.616;10.032;2023-03-14T12:56:32;6.40;1.00
10873;DHT22;34586;53.616;10.032;2023-03-14T12:59:30;6.40;1.00
10873;DHT22;34586;53.616;10.032;2023-03-14T13:02:01;6.50;1.00
10873;DHT22;34586;53.616;10.032;2023-03-14T13:04:35;6.50;1.00
10873;DHT22;34586;53.616;10.032;2023-03-14T13:07:03;6.40;1.00
10873;DHT22;34586;53.616;10.032;2023-03-14T13:09:36;6.30;1.00
10873;DHT22;34586;53.616;10.032;2023-03-14T13:12:17;6.30;1.00
10873;DHT22;34586;53.616;10.032;2023-03-14T13:14:49;6.30;1.00
10873;DHT22;34586;53.616;10.032;2023-03-14T13:17:22;6.30;1.00
10873;DHT22;34586;53.616;10.032;2023-03-14T13:19:55;6.40;1.00
10873;DHT22;34586;53.616;10.032;2023-03-14T13:22:30;6.50;1.00
10873;DHT22;34586;53.616;10.032;2023-03-14T13:25:06;6.70;1.00
10873;DHT22;34586;53.616;10.032;2023-03-14T13:27:34;7.00;1.00
10873;DHT22;34586;53.616;10.032;2023-03-14T13:32:45;7.50;1.00
10873;DHT22;34586;53.616;10.032;2023-03-14T13:35:23;7.70;99.90
10873;DHT22;34586;53.616;10.032;2023-03-14T13:37:56;7.60;99.90
10873;DHT22;34586;53.616;10.032;2023-03-14T13:40:32;7.60;1.00
10873;DHT22;34586;53.616;10.032;2023-03-14T13:43:04;7.40;99.90
10873;DHT22;34586;53.616;10.032;2023-03-14T13:45:30;7.20;80.40
10873;DHT22;34586;53.616;10.032;2023-03-14T13:47:56;7.20;20.80
10873;DHT22;34586;53.616;10.032;2023-03-14T13:50:22;7.10;1.00
10873;DHT22;34586;53.616;10.032;2023-03-14T13:52:55;7.10;1.00
10873;DHT22;34586;53.616;10.032;2023-03-14T13:55:20;7.00;99.90
10873;DHT22;34586;53.616;10.032;2023-03-14T13:57:53;7.20;99.90
10873;DHT22;34586;53.616;10.032;2023-03-14T14:00:23;7.20;1.00
10873;DHT22;34586;53.616;10.032;2023-03-14T14:02:56;7.20;1.00
10873;DHT22;34586;53.616;10.032;2023-03-14T14:05:25;7.10;1.00
10873;DHT22;34586;53.616;10.032;2023-03-14T14:07:52;7.00;99.90
10873;DHT22;34586;53.616;10.032;2023-03-14T14:10:18;7.00;1.00
10873;DHT22;34586;53.616;10.032;2023-03-14T14:12:58;6.90;1.00
10873;DHT22;34586;53.616;10.032;2023-03-14T14:15:27;6.80;1.00
10873;DHT22;34586;53.616;10.032;2023-03-14T14:17:57;6.80;99.90
10873;DHT22;34586;53.616;10.032;2023-03-14T14:20:38;7.00;20.70
10873;DHT22;34586;53.616;10.032;2023-03-14T14:23:09;7.20;1.00
10873;DHT22;34586;53.616;10.032;2023-03-14T14:25:36;7.10;1.00
10873;DHT22;34586;53.616;10.032;2023-03-14T14:28:35;7.20;1.00
10873;DHT22;34586;53.616;10.032;2023-03-14T14:33:57;7.40;1.00
10873;DHT22;34586;53.616;10.032;2023-03-14T14:36:24;7.40;1.00
10873;DHT22;34586;53.616;10.032;2023-03-14T14:38:52;7.50;1.00
10873;DHT22;34586;53.616;10.032;2023-03-14T14:41:18;7.40;1.00
10873;DHT22;34586;53.616;10.032;2023-03-14T14:43:44;7.40;46.90
10873;DHT22;34586;53.616;10.032;2023-03-14T14:46:13;7.30;1.00
10873;DHT22;34586;53.616;10.032;2023-03-14T14:48:41;7.30;1.00
10873;DHT22;34586;53.616;10.032;2023-03-14T14:51:07;7.30;1.00
10873;DHT22;34586;53.616;10.032;2023-03-14T14:53:41;7.30;99.90
10873;DHT22;34586;53.616;10.032;2023-03-14T14:58:45;7.10;99.90
10873;DHT22;34586;53.616;10.032;2023-03-14T15:01:22;7.00;99.90
10873;DHT22;34586;53.616;10.032;2023-03-14T15:03:51;7.00;99.90
10873;DHT22;34586;53.616;10.032;2023-03-14T15:06:18;7.00;99.90
10873;DHT22;34586;53.616;10.032;2023-03-14T15:08:46;7.00;99.90
10873;DHT22;34586;53.616;10.032;2023-03-14T15:11:17;7.00;99.90
10873;DHT22;34586;53.616;10.032;2023-03-14T15:13:43;7.10;99.90
10873;DHT22;34586;53.616;10.032;2023-03-14T15:16:10;7.00;99.90
10873;DHT22;34586;53.616;10.032;2023-03-14T15:18:36;7.10;1.00
10873;DHT22;34586;53.616;10.032;2023-03-14T15:21:02;7.10;1.00
10873;DHT22;34586;53.616;10.032;2023-03-14T15:23:27;7.20;1.00
10873;DHT22;34586;53.616;10.032;2023-03-14T15:25:53;7.30;1.00
10873;DHT22;34586;53.616;10.032;2023-03-14T15:28:26;7.10;12.60
10873;DHT22;34586;53.616;10.032;2023-03-14T15:30:57;7.20;1.00
10873;DHT22;34586;53.616;10.032;2023-03-14T15:33:24;7.20;1.00
10873;DHT22;34586;53.616;10.032;2023-03-14T15:35:50;7.20;1.00
10873;DHT22;34586;53.616;10.032;2023-03-14T15:38:20;7.10;1.00
10873;DHT22;34586;53.616;10.032;2023-03-14T15:40:52;7.00;1.00
10873;DHT22;34586;53.616;10.032;2023-03-14T15:43:18;6.80;1.00
10873;DHT22;34586;53.616;10.032;2023-03-14T15:45:44;6.80;1.00
10873;DHT22;34586;53.616;10.032;2023-03-14T15:48:18;6.80;1.00
10873;DHT22;34586;53.616;10.032;2023-03-14T15:50:44;6.90;1.00
10873;DHT22;34586;53.616;10.032;2023-03-14T15:53:11;6.80;99.90
10873;DHT22;34586;53.616;10.032;2023-03-14T15:55:36;6.70;1.00
10873;DHT22;34586;53.616;10.032;2023-03-14T15:58:02;6.60;1.00
10873;DHT22;34586;53.616;10.032;2023-03-14T16:00:28;6.60;1.00
10873;DHT22;34586;53.616;10.032;2023-03-14T16:02:54;6.60;1.00
10873;DHT22;34586;53.616;10.032;2023-03-14T16:05:20;6.60;1.00
10873;DHT22;34586;53.616;10.032;2023-03-14T16:07:46;6.70;1.00
10873;DHT22;34586;53.616;10.032;2023-03-14T16:10:13;6.70;1.00
10873;DHT22;34586;53.616;10.032;2023-03-14T16:12:39;6.80;99.90
10873;DHT22;34586;53.616;10.032;2023-03-14T16:15:05;6.90;12.20
10873;DHT22;34586;53.616;10.032;2023-03-14T16:17:32;7.00;1.00
10873;DHT22;34586;53.616;10.032;2023-03-14T16:19:57;7.00;6.70
10873;DHT22;34586;53.616;10.032;2023-03-14T16:22:23;6.90;1.00
10873;DHT22;34586;53.616;10.032;2023-03-14T16:24:48;6.70;99.90
10873;DHT22;34586;53.616;10.032;2023-03-14T16:27:14;6.60;94.90
10873;DHT22;34586;53.616;10.032;2023-03-14T16:29:41;6.50;2.30
10873;DHT22;34586;53.616;10.032;2023-03-14T16:32:08;6.40;99.90
10873;DHT22;34586;53.616;10.032;2023-03-14T16:34:33;6.20;99.90
10873;DHT22;34586;53.616;10.032;2023-03-14T16:36:59;6.20;1.00
10873;DHT22;34586;53.616;10.032;2023-03-14T16:39:25;6.10;1.00
10873;DHT22;34586;53.616;10.032;2023-03-14T16:41:53;6.10;1.00
10873;DHT22;34586;53.616;10.032;2023-03-14T16:44:18;6.20;99.90
10873;DHT22;34586;53.616;10.032;2023-03-14T16:46:44;6.10;69.70
10873;DHT22;34586;53.616;10.032;2023-03-14T16:49:09;6.00;99.90